Time;durP1;ratioP1;P1;durP2;ratioP2;P2;SDS_P1;SDS_P2;PMS_P1;PMS_P2;Temp;Humidity;BMP_temperature;BMP_pressure;BME280_temperature;BME280_humidity;BME280_pressure;Samples;Min_cycle;Max_cycle;Signal;HPM_P1;HPM_P2
2021/01/10 00:00:14;;;;;;;15.20;8.57;;;4.80;99.90;;;;;;5002580;28;20026;-79
2021/01/10 00:02:41;;;;;;;17.58;9.10;;;4.80;99.90;;;;;;4994696;28;20043;-81
2021/01/10 00:05:27;;;;;;;18.42;9.07;;;4.80;99.90;;;;;;5002569;28;20045;-82
2021/01/10 00:07:54;;;;;;;16.20;8.93;;;4.80;99.90;;;;;;5002359;28;20050;-81
2021/01/10 00:10:21;;;;;;;18.23;9.38;;;4.80;99.90;;;;;;5008874;28;20108;-81
2021/01/10 00:12:46;;;;;;;14.57;8.27;;;4.80;99.90;;;;;;5007191;28;20379;-82
2021/01/10 00:15:15;;;;;;;17.02;8.93;;;4.80;99.90;;;;;;4989483;28;20022;-82
2021/01/10 00:17:41;;;;;;;17.60;9.02;;;4.80;99.90;;;;;;5013318;28;20037;-81
2021/01/10 00:20:08;;;;;;;16.75;10.07;;;4.70;99.90;;;;;;5011267;28;20026;-81
2021/01/10 00:22:34;;;;;;;17.92;8.93;;;4.80;99.90;;;;;;5001894;28;20034;-81
2021/01/10 00:24:59;;;;;;;17.98;9.73;;;4.70;99.90;;;;;;5005002;28;20447;-81
2021/01/10 00:27:26;;;;;;;17.33;9.20;;;4.80;99.90;;;;;;5010798;28;20476;-81
2021/01/10 00:29:52;;;;;;;16.23;9.55;;;4.70;99.90;;;;;;4998744;28;20032;-81
2021/01/10 00:32:17;;;;;;;20.48;9.60;;;4.70;99.90;;;;;;5009306;28;20030;-81
2021/01/10 00:34:43;;;;;;;18.33;9.82;;;4.70;99.90;;;;;;5010436;28;20037;-81
2021/01/10 00:37:20;;;;;;;21.95;10.43;;;4.70;99.90;;;;;;4995204;28;20702;-81
2021/01/10 00:39:47;;;;;;;16.65;9.48;;;4.70;99.90;;;;;;5010041;28;20030;-81
2021/01/10 00:42:14;;;;;;;18.83;10.05;;;4.70;99.90;;;;;;5002839;28;20453;-81
2021/01/10 00:44:41;;;;;;;17.92;9.80;;;4.70;99.90;;;;;;5000394;28;20512;-81
2021/01/10 00:47:07;;;;;;;19.23;9.60;;;4.70;99.90;;;;;;5005902;28;20109;-81
2021/01/10 00:49:32;;;;;;;19.27;10.23;;;4.70;99.90;;;;;;5003574;28;20164;-81
2021/01/10 00:51:58;;;;;;;17.70;9.23;;;4.80;99.90;;;;;;5000387;28;20022;-81
2021/01/10 00:54:23;;;;;;;20.15;10.25;;;4.80;99.90;;;;;;5007094;28;20287;-81
2021/01/10 00:56:49;;;;;;;18.83;9.73;;;4.90;99.90;;;;;;4991782;28;20502;-81
2021/01/10 00:59:15;;;;;;;17.38;9.20;;;4.90;99.90;;;;;;5010843;28;20014;-81
2021/01/10 01:01:41;;;;;;;17.20;9.18;;;4.90;99.90;;;;;;5002283;28;20018;-80
2021/01/10 01:04:06;;;;;;;18.02;9.65;;;4.80;99.90;;;;;;4995906;28;20029;-80
2021/01/10 01:06:32;;;;;;;17.90;8.95;;;4.80;99.90;;;;;;5001073;28;20027;-81
2021/01/10 01:08:57;;;;;;;17.50;9.15;;;4.80;99.90;;;;;;5005068;28;20026;-80
2021/01/10 01:11:30;;;;;;;18.08;9.02;;;4.90;99.90;;;;;;5000526;28;20029;-80
2021/01/10 01:13:56;;;;;;;18.90;9.18;;;4.90;99.90;;;;;;5005114;28;20026;-80
2021/01/10 01:16:22;;;;;;;18.80;9.70;;;4.80;99.90;;;;;;5005110;28;20018;-81
2021/01/10 01:18:47;;;;;;;17.02;9.25;;;4.80;99.90;;;;;;5012265;28;20062;-80
2021/01/10 01:21:20;;;;;;;16.77;9.18;;;4.90;99.90;;;;;;4997999;28;20018;-81
2021/01/10 01:23:46;;;;;;;18.90;9.25;;;4.90;99.90;;;;;;5008918;28;20034;-81
2021/01/10 01:26:22;;;;;;;20.73;9.35;;;4.80;99.90;;;;;;5020078;28;20439;-81
2021/01/10 01:28:48;;;;;;;24.35;10.07;;;4.90;99.90;;;;;;5008525;28;20038;-81
2021/01/10 01:31:15;;;;;;;22.30;10.38;;;4.80;99.90;;;;;;5011618;28;20100;-81
2021/01/10 01:33:43;;;;;;;19.52;10.05;;;4.80;99.90;;;;;;5007653;28;20029;-81
2021/01/10 01:36:17;;;;;;;20.75;10.32;;;4.80;99.90;;;;;;4999318;28;20075;-81
2021/01/10 01:38:45;;;;;;;18.10;10.30;;;4.80;99.90;;;;;;5008538;28;20037;-80
2021/01/10 01:41:11;;;;;;;22.30;10.38;;;4.80;99.90;;;;;;5008160;28;20041;-81
2021/01/10 01:43:38;;;;;;;20.40;10.52;;;4.90;99.90;;;;;;5009203;28;20538;-81
2021/01/10 01:46:08;;;;;;;18.73;10.48;;;4.70;99.90;;;;;;5003918;28;20034;-80
2021/01/10 01:48:36;;;;;;;19.00;10.67;;;4.70;99.90;;;;;;5012530;28;20057;-81
2021/01/10 01:51:02;;;;;;;21.10;10.80;;;4.70;99.90;;;;;;5010136;28;20288;-81
2021/01/10 01:53:29;;;;;;;24.17;11.52;;;4.60;99.90;;;;;;5008761;28;20503;-80
2021/01/10 01:55:56;;;;;;;26.83;11.68;;;4.60;99.90;;;;;;4995121;28;20026;-81
2021/01/10 01:58:23;;;;;;;23.95;10.73;;;4.60;99.90;;;;;;4996164;28;20044;-80
2021/01/10 02:00:49;;;;;;;22.95;10.85;;;4.60;99.90;;;;;;5009400;28;20025;-80
2021/01/10 02:03:22;;;;;;;25.52;11.43;;;4.60;99.90;;;;;;4996868;28;20026;-80
2021/01/10 02:05:49;;;;;;;26.40;11.77;;;4.50;99.90;;;;;;5018765;28;20030;-80
2021/01/10 02:08:16;;;;;;;26.38;11.80;;;4.50;99.90;;;;;;5000698;28;20038;-80
2021/01/10 02:10:42;;;;;;;25.38;11.55;;;4.60;99.90;;;;;;5001053;28;20108;-80
2021/01/10 02:13:13;;;;;;;23.98;11.32;;;4.50;99.90;;;;;;4994524;28;20034;-80
2021/01/10 02:15:40;;;;;;;26.90;12.50;;;4.40;99.90;;;;;;4998622;28;20034;-81
2021/01/10 02:18:08;;;;;;;25.85;11.75;;;4.50;99.90;;;;;;5002175;28;20533;-80
2021/01/10 02:20:36;;;;;;;24.92;11.70;;;4.50;99.90;;;;;;5004273;28;20103;-81
2021/01/10 02:23:07;;;;;;;25.13;11.73;;;4.60;99.90;;;;;;5011328;28;20468;-80
2021/01/10 02:25:35;;;;;;;28.67;12.77;;;4.50;99.90;;;;;;4996905;28;20041;-81
2021/01/10 02:28:01;;;;;;;24.42;11.43;;;4.50;99.90;;;;;;5010827;28;22089;-81
2021/01/10 02:30:28;;;;;;;23.92;11.38;;;4.50;99.90;;;;;;5002375;28;20483;-81
2021/01/10 02:32:59;;;;;;;26.40;12.10;;;4.50;99.90;;;;;;5008740;28;20550;-81
2021/01/10 02:35:26;;;;;;;27.38;12.65;;;4.60;99.90;;;;;;4994067;28;20038;-80
2021/01/10 02:38:03;;;;;;;26.67;11.73;;;4.60;99.90;;;;;;5004172;28;20044;-80
2021/01/10 02:40:39;;;;;;;28.88;12.88;;;4.60;99.90;;;;;;5000764;28;20436;-81
2021/01/10 02:43:11;;;;;;;24.10;11.73;;;4.40;99.90;;;;;;5013666;28;20048;-80
2021/01/10 02:45:41;;;;;;;29.42;12.02;;;4.40;99.90;;;;;;5012832;28;20479;-81
2021/01/10 02:48:08;;;;;;;25.75;11.77;;;4.50;99.90;;;;;;5025814;28;20144;-81
2021/01/10 02:50:34;;;;;;;26.77;11.27;;;4.50;99.90;;;;;;5012014;28;20057;-81
2021/01/10 02:52:59;;;;;;;23.38;11.60;;;4.50;99.90;;;;;;5010446;28;20030;-81
2021/01/10 02:55:25;;;;;;;26.05;11.98;;;4.50;99.90;;;;;;5007199;28;20384;-81
2021/01/10 02:57:58;;;;;;;24.95;12.45;;;4.50;99.90;;;;;;5007718;28;20071;-80
2021/01/10 03:00:25;;;;;;;25.73;12.32;;;4.50;99.90;;;;;;4996592;28;20463;-80
2021/01/10 03:02:53;;;;;;;25.95;10.90;;;4.50;99.90;;;;;;5010770;28;20024;-80
2021/01/10 03:05:19;;;;;;;22.25;10.68;;;4.40;99.90;;;;;;5009022;28;20147;-80
2021/01/10 03:07:45;;;;;;;22.52;10.63;;;4.40;99.90;;;;;;5007304;28;20112;-80
2021/01/10 03:10:12;;;;;;;27.02;11.70;;;4.40;99.90;;;;;;4999287;28;20037;-80
2021/01/10 03:12:37;;;;;;;27.45;12.00;;;4.40;99.90;;;;;;5015852;28;20187;-80
2021/01/10 03:15:06;;;;;;;23.05;11.07;;;4.50;99.90;;;;;;5008578;28;20142;-80
2021/01/10 03:17:42;;;;;;;25.92;11.00;;;4.40;99.90;;;;;;5007739;28;20034;-80
2021/01/10 03:20:13;;;;;;;21.67;10.18;;;4.40;99.90;;;;;;5002152;28;20033;-80
2021/01/10 03:22:39;;;;;;;25.85;11.30;;;4.40;99.90;;;;;;5008408;28;20105;-80
2021/01/10 03:25:06;;;;;;;23.30;10.35;;;4.40;99.90;;;;;;4995883;28;20117;-80
2021/01/10 03:27:35;;;;;;;21.67;10.73;;;4.50;99.90;;;;;;5011446;28;20575;-80
2021/01/10 03:30:06;;;;;;;20.80;9.13;;;4.40;99.90;;;;;;4991305;28;20042;-80
2021/01/10 03:32:32;;;;;;;22.77;9.55;;;4.40;99.90;;;;;;4990215;28;20061;-80
2021/01/10 03:34:58;;;;;;;18.85;10.20;;;4.40;99.90;;;;;;5002235;28;20026;-80
2021/01/10 03:37:23;;;;;;;16.40;9.18;;;4.40;99.90;;;;;;5008961;28;20113;-80
2021/01/10 03:39:49;;;;;;;18.42;9.00;;;4.50;99.90;;;;;;5006459;28;20036;-81
2021/01/10 03:42:14;;;;;;;18.30;8.48;;;4.40;99.90;;;;;;5001876;28;20049;-81
2021/01/10 03:44:40;;;;;;;19.60;9.43;;;4.40;99.90;;;;;;5001416;28;20034;-80
2021/01/10 03:47:05;;;;;;;18.45;8.80;;;4.40;99.90;;;;;;5004730;28;20128;-80
2021/01/10 03:49:31;;;;;;;20.63;10.10;;;4.40;99.90;;;;;;4997283;28;20026;-80
2021/01/10 03:51:56;;;;;;;20.33;8.95;;;4.40;99.90;;;;;;5001580;28;20515;-80
2021/01/10 03:54:21;;;;;;;19.52;9.15;;;4.40;99.90;;;;;;4991807;28;20464;-81
2021/01/10 03:56:47;;;;;;;19.85;9.52;;;4.50;99.90;;;;;;5001540;28;20066;-80
2021/01/10 03:59:13;;;;;;;19.25;8.93;;;4.40;99.90;;;;;;5002092;28;20507;-80
2021/01/10 04:01:38;;;;;;;16.83;8.32;;;4.40;99.90;;;;;;5004153;28;20037;-81
2021/01/10 04:04:04;;;;;;;17.48;8.98;;;4.40;99.90;;;;;;5006175;28;20029;-80
2021/01/10 04:06:29;;;;;;;19.15;9.32;;;4.30;99.90;;;;;;5013115;28;20117;-80
2021/01/10 04:08:55;;;;;;;21.83;9.18;;;4.30;99.90;;;;;;5007407;28;20030;-80
2021/01/10 04:11:23;;;;;;;18.85;9.05;;;4.30;99.90;;;;;;4992499;28;20459;-80
2021/01/10 04:13:49;;;;;;;20.35;8.63;;;4.30;99.90;;;;;;5004298;28;20041;-81
2021/01/10 04:16:15;;;;;;;19.15;8.93;;;4.30;99.90;;;;;;5008404;28;20329;-80
2021/01/10 04:18:41;;;;;;;19.67;9.73;;;4.30;99.90;;;;;;5004858;28;20034;-80
2021/01/10 04:21:06;;;;;;;15.88;8.35;;;4.30;99.90;;;;;;5007158;28;20026;-81
2021/01/10 04:23:31;;;;;;;17.65;7.80;;;4.30;99.90;;;;;;5014551;28;20034;-81
2021/01/10 04:25:57;;;;;;;15.98;7.82;;;4.30;99.90;;;;;;5007902;28;20034;-81
2021/01/10 04:28:22;;;;;;;17.60;8.15;;;4.30;99.90;;;;;;5007103;28;20034;-81
2021/01/10 04:30:48;;;;;;;17.35;8.38;;;4.30;99.90;;;;;;4991003;28;20481;-80
2021/01/10 04:33:14;;;;;;;16.65;8.57;;;4.30;99.90;;;;;;4994762;28;20030;-80
2021/01/10 04:35:39;;;;;;;18.77;8.70;;;4.20;99.90;;;;;;4998246;28;20709;-80
2021/01/10 04:38:05;;;;;;;17.27;8.38;;;4.20;99.90;;;;;;5020246;28;20025;-80
2021/01/10 04:40:31;;;;;;;16.52;7.88;;;4.10;99.90;;;;;;5009619;28;20403;-80
2021/01/10 04:42:57;;;;;;;16.38;7.57;;;4.00;99.90;;;;;;5013220;28;20050;-80
2021/01/10 04:45:23;;;;;;;16.80;8.50;;;4.00;99.90;;;;;;5000274;28;20409;-80
2021/01/10 04:47:48;;;;;;;20.58;8.77;;;4.10;99.90;;;;;;5001241;28;20041;-80
2021/01/10 04:50:16;;;;;;;18.35;9.13;;;4.10;99.90;;;;;;4996211;28;20042;-80
2021/01/10 04:52:42;;;;;;;16.85;8.75;;;4.10;99.90;;;;;;5001639;28;20038;-80
2021/01/10 04:55:08;;;;;;;19.60;8.95;;;4.00;99.90;;;;;;4993226;28;20022;-80
2021/01/10 04:57:35;;;;;;;16.92;7.70;;;4.00;99.90;;;;;;5009639;28;20137;-80
2021/01/10 05:00:04;;;;;;;20.88;8.98;;;4.10;99.90;;;;;;5011030;28;20113;-80
2021/01/10 05:02:32;;;;;;;21.25;9.35;;;4.00;99.90;;;;;;5015748;28;20479;-81
2021/01/10 05:04:58;;;;;;;16.83;8.07;;;4.00;99.90;;;;;;5010480;28;20026;-80
2021/01/10 05:07:26;;;;;;;17.67;8.18;;;3.90;99.90;;;;;;5009741;28;20053;-80
2021/01/10 05:09:52;;;;;;;19.17;8.55;;;3.90;99.90;;;;;;5011252;28;20496;-80
2021/01/10 05:12:17;;;;;;;16.33;7.70;;;3.80;99.90;;;;;;5004973;28;20036;-80
2021/01/10 05:14:43;;;;;;;17.15;8.30;;;3.90;99.90;;;;;;4999200;28;20112;-80
2021/01/10 05:17:20;;;;;;;16.92;8.63;;;3.90;99.90;;;;;;5002843;28;20668;-80
2021/01/10 05:19:48;;;;;;;17.08;8.82;;;3.90;99.90;;;;;;5015764;28;20033;-80
2021/01/10 05:22:15;;;;;;;18.33;7.90;;;3.90;99.90;;;;;;5002293;28;20069;-80
2021/01/10 05:24:41;;;;;;;15.63;7.75;;;3.80;99.90;;;;;;5002902;28;20502;-80
2021/01/10 05:27:06;;;;;;;15.98;7.88;;;3.80;99.90;;;;;;5007844;28;20052;-79
2021/01/10 05:29:33;;;;;;;14.40;7.32;;;3.80;99.90;;;;;;5004655;28;20113;-81
2021/01/10 05:31:59;;;;;;;18.30;8.35;;;3.80;99.90;;;;;;5004040;28;20041;-80
2021/01/10 05:34:26;;;;;;;16.52;7.57;;;3.80;99.90;;;;;;5012617;28;20022;-80
2021/01/10 05:36:52;;;;;;;16.80;7.70;;;3.90;99.90;;;;;;5014707;28;20022;-80
2021/01/10 05:39:23;;;;;;;16.63;7.72;;;3.80;99.90;;;;;;5011422;28;20029;-80
2021/01/10 05:41:55;;;;;;;19.45;7.90;;;3.90;99.90;;;;;;5003009;28;20048;-80
2021/01/10 05:44:21;;;;;;;20.23;8.90;;;3.90;99.90;;;;;;5007640;28;20045;-80
2021/01/10 05:46:48;;;;;;;15.05;7.10;;;3.90;99.90;;;;;;5013105;28;20037;-80
2021/01/10 05:49:22;;;;;;;15.27;7.68;;;3.80;99.90;;;;;;5000871;28;20088;-80
2021/01/10 05:51:48;;;;;;;17.85;8.02;;;3.80;99.90;;;;;;4999248;28;20038;-80
2021/01/10 05:54:33;;;;;;;20.92;7.75;;;3.90;99.90;;;;;;4999215;28;20530;-80
2021/01/10 05:57:00;;;;;;;14.85;7.45;;;3.90;99.90;;;;;;5015602;28;20061;-80
2021/01/10 05:59:28;;;;;;;15.82;7.57;;;3.90;99.90;;;;;;4996984;28;20030;-80
2021/01/10 06:01:54;;;;;;;15.98;8.13;;;3.80;99.90;;;;;;5009465;28;20105;-80
2021/01/10 06:04:23;;;;;;;17.67;8.57;;;3.80;99.90;;;;;;5014816;28;20029;-80
2021/01/10 06:06:48;;;;;;;17.90;8.30;;;3.80;99.90;;;;;;5005374;28;20085;-80
2021/01/10 06:09:14;;;;;;;18.67;8.30;;;3.80;99.90;;;;;;5006144;28;20033;-80
2021/01/10 06:11:39;;;;;;;15.90;7.13;;;3.70;99.90;;;;;;5011676;28;20030;-81
2021/01/10 06:14:05;;;;;;;15.55;7.28;;;3.70;99.90;;;;;;5021381;28;20557;-80
2021/01/10 06:16:36;;;;;;;16.00;7.07;;;3.60;99.90;;;;;;5007974;28;20030;-80
2021/01/10 06:19:07;;;;;;;17.08;8.13;;;3.50;99.90;;;;;;4998210;28;20037;-80
2021/01/10 06:21:34;;;;;;;16.30;7.90;;;3.30;99.90;;;;;;4997706;28;20035;-80
2021/01/10 06:24:04;;;;;;;17.63;7.43;;;3.40;99.90;;;;;;5004288;28;20105;-80
2021/01/10 06:26:32;;;;;;;15.18;8.23;;;3.40;99.90;;;;;;5001394;28;20042;-80
2021/01/10 06:29:08;;;;;;;13.38;7.18;;;3.40;99.90;;;;;;5002094;28;20117;-80
2021/01/10 06:31:36;;;;;;;14.68;6.97;;;3.50;99.90;;;;;;5012020;28;20042;-80
2021/01/10 06:34:05;;;;;;;16.38;8.00;;;3.40;99.90;;;;;;4991704;28;20042;-80
2021/01/10 06:36:33;;;;;;;15.60;7.53;;;3.40;99.90;;;;;;5006556;28;20026;-80
2021/01/10 06:39:03;;;;;;;13.88;7.20;;;3.40;99.90;;;;;;4992594;28;20050;-80
2021/01/10 06:41:35;;;;;;;15.95;7.85;;;3.50;99.90;;;;;;5000945;28;20038;-80
2021/01/10 06:44:04;;;;;;;;;;;3.50;99.90;;;;;;5008401;28;20022;-80
2021/01/10 06:46:31;;;;;;;15.57;7.00;;;3.60;99.90;;;;;;5004287;28;19906;-80
2021/01/10 06:48:57;;;;;;;14.50;7.35;;;3.60;99.90;;;;;;5014875;28;20037;-80
2021/01/10 06:51:24;;;;;;;13.18;6.97;;;3.70;99.90;;;;;;5003637;28;20056;-80
2021/01/10 06:53:50;;;;;;;15.43;6.63;;;3.70;99.90;;;;;;5009615;28;20034;-80
2021/01/10 06:56:16;;;;;;;13.05;7.43;;;3.60;99.90;;;;;;5006680;28;20112;-80
2021/01/10 06:59:11;;;;;;;13.50;6.50;;;3.60;99.90;;;;;;5008105;28;20038;-80
2021/01/10 07:01:48;;;;;;;19.05;6.38;;;3.50;99.90;;;;;;5002958;28;20044;-80
2021/01/10 07:04:18;;;;;;;13.73;6.85;;;3.50;99.90;;;;;;4999715;28;20026;-80
2021/01/10 07:06:53;;;;;;;13.40;7.15;;;3.60;99.90;;;;;;4996680;28;20041;-80
2021/01/10 07:09:19;;;;;;;13.95;7.05;;;3.50;99.90;;;;;;5000215;28;20030;-80
2021/01/10 07:11:46;;;;;;;15.80;7.40;;;3.50;99.90;;;;;;5004742;28;20075;-79
2021/01/10 07:14:11;;;;;;;14.82;6.25;;;3.40;99.90;;;;;;5017358;28;20396;-80
2021/01/10 07:16:41;;;;;;;11.68;6.28;;;3.40;99.90;;;;;;5009137;28;20022;-80
2021/01/10 07:19:08;;;;;;;11.55;5.72;;;3.60;99.90;;;;;;5001602;28;20366;-79
2021/01/10 07:21:41;;;;;;;11.35;6.50;;;3.50;99.90;;;;;;5006288;28;20030;-79
2021/01/10 07:24:13;;;;;;;11.80;6.20;;;3.50;99.90;;;;;;5004745;28;20069;-80
2021/01/10 07:26:51;;;;;;;10.40;5.65;;;3.50;99.90;;;;;;5002123;28;20492;-80
2021/01/10 07:29:28;;;;;;;12.35;6.75;;;3.50;99.90;;;;;;5004020;28;20490;-81
2021/01/10 07:31:58;;;;;;;12.40;6.45;;;3.40;99.90;;;;;;4998740;28;20034;-80
2021/01/10 07:34:25;;;;;;;12.10;6.10;;;3.50;99.90;;;;;;4994109;28;20428;-80
2021/01/10 07:36:53;;;;;;;8.68;5.50;;;3.60;99.90;;;;;;4989908;28;20036;-80
2021/01/10 07:39:25;;;;;;;11.05;5.13;;;3.50;99.90;;;;;;4992769;28;20034;-80
2021/01/10 07:42:15;;;;;;;14.32;5.97;;;3.60;99.90;;;;;;5008879;28;20050;-80
2021/01/10 07:44:48;;;;;;;10.15;5.63;;;3.50;99.90;;;;;;4998590;28;20030;-80
2021/01/10 07:47:13;;;;;;;9.52;4.78;;;3.50;99.90;;;;;;5013686;28;20100;-80
2021/01/10 07:49:50;;;;;;;11.50;5.80;;;3.40;99.90;;;;;;5011544;28;20113;-80
2021/01/10 07:52:17;;;;;;;14.07;6.78;;;3.50;99.90;;;;;;5007444;28;20030;-80
2021/01/10 07:54:54;;;;;;;13.55;6.65;;;3.50;99.90;;;;;;4998022;28;20113;-80
2021/01/10 07:57:23;;;;;;;11.85;6.63;;;3.50;99.90;;;;;;4995221;28;20543;-80
2021/01/10 08:00:12;;;;;;;9.82;5.78;;;3.50;99.90;;;;;;5003291;28;20030;-79
2021/01/10 08:03:01;;;;;;;14.57;5.80;;;3.50;99.90;;;;;;5006706;28;20369;-80
2021/01/10 08:05:30;;;;;;;13.43;6.50;;;3.50;99.90;;;;;;5007154;28;20407;-80
2021/01/10 08:08:03;;;;;;;12.52;6.45;;;3.60;99.90;;;;;;5011529;28;20499;-80
2021/01/10 08:10:53;;;;;;;12.20;6.55;;;3.60;99.90;;;;;;5004675;28;20030;-80
2021/01/10 08:13:30;;;;;;;10.40;5.50;;;3.50;99.90;;;;;;5014613;28;20037;-80
2021/01/10 08:15:57;;;;;;;15.35;7.13;;;3.40;99.90;;;;;;4998872;28;20058;-80
2021/01/10 08:18:24;;;;;;;13.57;6.88;;;3.40;99.90;;;;;;5014794;28;20262;-80
2021/01/10 08:20:59;;;;;;;21.40;6.70;;;3.40;99.90;;;;;;5007401;28;20538;-80
2021/01/10 08:23:24;;;;;;;14.52;6.90;;;3.40;99.90;;;;;;5011672;28;20032;-80
2021/01/10 08:26:10;;;;;;;12.32;5.97;;;3.40;99.90;;;;;;5010403;28;20033;-81
2021/01/10 08:28:41;;;;;;;14.10;7.18;;;3.30;99.90;;;;;;5023492;28;20398;-81
2021/01/10 08:31:09;;;;;;;10.30;4.97;;;3.30;99.90;;;;;;5008777;28;20034;-81
2021/01/10 08:33:35;;;;;;;14.65;7.07;;;3.40;99.90;;;;;;5011766;28;20030;-80
2021/01/10 08:36:09;;;;;;;15.15;7.30;;;3.40;99.90;;;;;;5012174;28;20030;-80
2021/01/10 08:38:36;;;;;;;17.85;7.88;;;3.50;99.90;;;;;;5007169;28;20387;-79
2021/01/10 08:41:01;;;;;;;16.55;7.25;;;3.50;99.90;;;;;;5010270;28;20038;-79
2021/01/10 08:43:27;;;;;;;17.15;7.20;;;3.50;99.90;;;;;;5002269;28;20034;-80
2021/01/10 08:45:52;;;;;;;14.05;7.30;;;3.40;99.90;;;;;;5010546;28;20037;-80
2021/01/10 08:48:18;;;;;;;15.57;7.15;;;3.40;99.90;;;;;;5009314;28;20041;-80
2021/01/10 08:50:44;;;;;;;14.52;7.53;;;3.40;99.90;;;;;;5007461;28;20098;-80
2021/01/10 08:53:09;;;;;;;17.48;7.13;;;3.40;99.90;;;;;;5007923;28;20232;-80
2021/01/10 08:55:42;;;;;;;12.90;6.85;;;3.40;99.90;;;;;;4995912;28;20030;-80
2021/01/10 08:58:10;;;;;;;14.35;7.60;;;3.50;99.90;;;;;;4997345;28;20031;-80
2021/01/10 09:00:39;;;;;;;15.02;7.35;;;3.40;99.90;;;;;;4992753;28;20081;-80
2021/01/10 09:03:15;;;;;;;12.77;6.70;;;3.40;99.90;;;;;;4997564;28;20103;-80
2021/01/10 09:05:40;;;;;;;13.15;6.28;;;3.30;99.90;;;;;;5000896;28;20030;-80
2021/01/10 09:08:13;;;;;;;11.38;5.95;;;3.20;99.90;;;;;;4996382;28;20030;-80
2021/01/10 09:10:55;;;;;;;12.00;5.95;;;3.10;99.90;;;;;;5020132;28;20026;-80
2021/01/10 09:13:23;;;;;;;13.60;6.43;;;3.00;99.90;;;;;;5003737;28;20057;-80
2021/01/10 09:15:52;;;;;;;13.23;6.68;;;3.10;99.90;;;;;;5001786;28;20061;-83
2021/01/10 09:18:20;;;;;;;11.18;5.97;;;3.20;99.90;;;;;;5008843;28;20087;-81
2021/01/10 09:21:00;;;;;;;13.52;6.35;;;3.30;99.90;;;;;;5005471;28;20120;-79
2021/01/10 09:23:25;;;;;;;10.88;6.15;;;3.20;99.90;;;;;;5002739;28;20107;-78
2021/01/10 09:25:51;;;;;;;11.35;5.68;;;3.30;99.90;;;;;;5015784;28;20081;-77
2021/01/10 09:28:18;;;;;;;12.48;5.55;;;3.10;99.90;;;;;;5002841;28;20033;-76
2021/01/10 09:30:49;;;;;;;12.38;6.30;;;3.10;99.90;;;;;;5004668;28;20116;-81
2021/01/10 09:33:21;;;;;;;11.63;6.68;;;3.00;99.90;;;;;;5005312;28;20030;-85
2021/01/10 09:35:47;;;;;;;13.32;7.20;;;3.00;99.90;;;;;;5010258;28;20030;-81
2021/01/10 09:38:18;;;;;;;12.15;6.78;;;3.10;99.90;;;;;;4997223;28;20044;-79
2021/01/10 09:41:00;;;;;;;16.13;7.82;;;3.20;99.90;;;;;;4992989;28;20034;-80
2021/01/10 09:43:40;;;;;;;15.07;7.32;;;3.30;99.90;;;;;;5005132;28;20037;-79
2021/01/10 09:46:39;;;;;;;13.07;6.65;;;3.30;99.90;;;;;;5019587;28;20095;-80
2021/01/10 09:49:22;;;;;;;13.70;7.00;;;3.40;99.90;;;;;;5001591;28;20025;-84
2021/01/10 09:51:59;;;;;;;12.93;6.63;;;3.40;99.90;;;;;;5008431;28;20038;-82
2021/01/10 09:54:38;;;;;;;12.20;6.70;;;3.50;99.90;;;;;;5012943;28;20032;-83
2021/01/10 09:57:19;;;;;;;15.38;7.00;;;3.40;99.90;;;;;;5009823;28;20034;-80
2021/01/10 09:59:46;;;;;;;12.85;6.70;;;3.50;99.90;;;;;;5011426;28;20053;-81
2021/01/10 10:02:23;;;;;;;10.70;5.80;;;3.50;99.90;;;;;;5001120;28;20464;-81
2021/01/10 10:04:53;;;;;;;12.48;6.40;;;3.60;99.90;;;;;;5002637;28;20026;-81
2021/01/10 10:07:36;;;;;;;13.07;7.30;;;3.60;99.90;;;;;;5006945;28;20549;-82
2021/01/10 10:10:07;;;;;;;11.60;6.97;;;3.40;99.90;;;;;;4996459;28;20495;-75
2021/01/10 10:12:33;;;;;;;12.82;6.97;;;3.40;99.90;;;;;;5006076;28;20483;-75
2021/01/10 10:15:08;;;;;;;12.80;7.20;;;3.50;99.90;;;;;;4998827;28;20022;-76
2021/01/10 10:17:36;;;;;;;13.68;7.15;;;3.50;99.90;;;;;;5001243;28;20042;-74
2021/01/10 10:20:04;;;;;;;12.70;6.93;;;3.70;99.90;;;;;;5009085;28;20439;-75
2021/01/10 10:22:32;;;;;;;14.77;7.75;;;3.70;99.90;;;;;;5010059;28;20030;-75
2021/01/10 10:24:59;;;;;;;12.70;6.88;;;3.60;99.90;;;;;;5003155;28;20022;-80
2021/01/10 10:27:26;;;;;;;15.68;7.15;;;3.60;99.90;;;;;;5000974;28;20030;-79
2021/01/10 10:29:52;;;;;;;18.83;7.38;;;3.60;99.90;;;;;;4991240;28;20022;-79
2021/01/10 10:32:17;;;;;;;13.60;7.80;;;3.70;99.90;;;;;;5011526;28;20560;-79
2021/01/10 10:34:43;;;;;;;15.25;7.28;;;3.60;99.90;;;;;;4990803;28;20022;-77
2021/01/10 10:37:08;;;;;;;12.55;6.82;;;3.70;99.90;;;;;;5002522;28;20532;-80
2021/01/10 10:39:35;;;;;;;12.55;7.00;;;3.60;99.90;;;;;;4993127;28;20018;-78
2021/01/10 10:42:03;;;;;;;14.27;7.80;;;3.70;99.90;;;;;;5011118;28;20472;-79
2021/01/10 10:44:28;;;;;;;14.43;7.63;;;3.70;99.90;;;;;;5004622;28;20121;-80
2021/01/10 10:46:54;;;;;;;13.90;7.15;;;3.70;99.90;;;;;;4990819;28;20110;-78
2021/01/10 10:49:20;;;;;;;14.57;7.35;;;3.60;99.90;;;;;;5007411;28;20109;-77
2021/01/10 10:51:45;;;;;;;14.38;7.25;;;3.40;99.90;;;;;;4996300;28;20061;-83
2021/01/10 10:54:13;;;;;;;13.73;7.35;;;3.50;99.90;;;;;;5005833;28;20068;-80
2021/01/10 10:56:40;;;;;;;15.05;6.88;;;3.50;99.90;;;;;;5010685;28;20032;-80
2021/01/10 10:59:06;;;;;;;11.98;5.85;;;3.50;99.90;;;;;;5007931;28;20022;-75
2021/01/10 11:01:42;;;;;;;11.65;6.57;;;3.50;99.90;;;;;;5006252;28;20034;-75
2021/01/10 11:04:09;;;;;;;11.02;5.85;;;3.50;99.90;;;;;;4999316;28;20022;-75
2021/01/10 11:06:35;;;;;;;14.60;6.43;;;3.80;99.90;;;;;;5002387;28;20026;-75
2021/01/10 11:09:02;;;;;;;14.18;6.63;;;4.10;99.90;;;;;;4998305;28;20033;-82
2021/01/10 11:11:35;;;;;;;10.98;5.80;;;4.40;99.90;;;;;;5004474;28;20037;-80
2021/01/10 11:14:00;;;;;;;12.73;5.70;;;4.90;99.20;;;;;;5005374;28;20034;-81
2021/01/10 11:16:32;;;;;;;11.35;5.72;;;5.00;98.10;;;;;;5002262;28;20080;-83
2021/01/10 11:18:59;;;;;;;12.13;6.38;;;5.20;97.00;;;;;;5010660;28;20121;-74
2021/01/10 11:21:38;;;;;;;11.95;6.10;;;5.50;96.60;;;;;;5008088;28;20268;-74
2021/01/10 11:24:05;;;;;;;9.48;5.60;;;5.70;95.90;;;;;;5000904;28;20070;-79
2021/01/10 11:26:31;;;;;;;13.10;6.35;;;5.80;94.90;;;;;;5005315;28;20033;-77
2021/01/10 11:28:57;;;;;;;12.07;5.95;;;5.90;94.60;;;;;;5004759;28;20064;-82
2021/01/10 11:31:24;;;;;;;9.30;5.65;;;6.00;94.10;;;;;;5008006;28;20057;-82
2021/01/10 11:33:50;;;;;;;9.77;5.80;;;6.10;93.10;;;;;;4999997;28;20030;-76
2021/01/10 11:36:16;;;;;;;10.93;5.72;;;6.20;93.00;;;;;;4995169;28;20523;-74
2021/01/10 11:38:42;;;;;;;9.73;5.28;;;5.90;92.40;;;;;;5002328;28;20113;-73
2021/01/10 11:41:09;;;;;;;10.88;4.95;;;5.70;92.60;;;;;;4996712;28;20037;-77
2021/01/10 11:43:36;;;;;;;8.75;4.95;;;5.90;92.10;;;;;;5003789;28;20519;-76
2021/01/10 11:46:06;;;;;;;9.18;5.00;;;5.60;91.70;;;;;;4998780;28;20042;-77
2021/01/10 11:48:32;;;;;;;9.82;4.90;;;5.00;92.50;;;;;;5000251;28;20112;-77
2021/01/10 11:50:58;;;;;;;10.95;5.50;;;5.00;93.80;;;;;;4999635;28;20022;-77
2021/01/10 11:53:25;;;;;;;9.18;5.07;;;5.10;94.10;;;;;;5001928;28;20026;-76
2021/01/10 11:55:51;;;;;;;10.32;5.30;;;5.20;94.40;;;;;;5001864;28;20049;-77
2021/01/10 11:58:16;;;;;;;11.70;6.70;;;4.90;94.30;;;;;;5003820;28;20034;-77
2021/01/10 12:00:41;;;;;;;10.18;5.22;;;4.80;95.00;;;;;;5003724;28;20484;-76
2021/01/10 12:03:07;;;;;;;8.32;4.95;;;5.00;94.40;;;;;;5002425;28;20133;-76
2021/01/10 12:05:33;;;;;;;9.60;5.35;;;5.10;93.90;;;;;;5003412;28;20473;-76
2021/01/10 12:07:59;;;;;;;10.20;5.20;;;5.40;93.70;;;;;;5003671;28;20040;-76
2021/01/10 12:10:27;;;;;;;8.32;5.10;;;5.60;92.90;;;;;;5002726;28;20029;-76
2021/01/10 12:12:53;;;;;;;9.05;4.95;;;5.80;92.90;;;;;;5003628;28;20395;-77
2021/01/10 12:15:18;;;;;;;9.10;5.18;;;6.00;92.40;;;;;;5002938;28;20030;-76
2021/01/10 12:17:44;;;;;;;8.13;4.50;;;6.00;91.50;;;;;;5001477;28;20425;-76
2021/01/10 12:20:10;;;;;;;12.43;4.90;;;5.70;91.50;;;;;;5003171;28;20038;-77
2021/01/10 12:22:35;;;;;;;11.05;5.40;;;5.50;91.90;;;;;;5003737;28;20033;-76
2021/01/10 12:25:01;;;;;;;8.15;4.93;;;5.30;92.50;;;;;;5001708;28;20030;-77
2021/01/10 12:27:26;;;;;;;11.18;5.70;;;5.20;93.00;;;;;;5001205;28;20037;-76
2021/01/10 12:29:58;;;;;;;7.93;4.75;;;4.80;93.40;;;;;;5002815;28;20021;-76
2021/01/10 12:32:24;;;;;;;;;;;4.80;93.40;;;;;;4999029;28;20022;-76
2021/01/10 12:34:49;;;;;;;9.77;4.30;;;4.50;94.00;;;;;;5003377;28;19905;-76
2021/01/10 12:37:18;;;;;;;10.35;4.47;;;4.50;94.50;;;;;;5003712;28;20026;-76
2021/01/10 12:39:44;;;;;;;9.73;5.00;;;4.40;94.60;;;;;;5003154;28;20044;-76
2021/01/10 12:42:14;;;;;;;10.15;5.03;;;4.30;95.10;;;;;;5003660;28;20042;-76
2021/01/10 12:44:39;;;;;;;9.55;4.95;;;4.30;95.70;;;;;;5002685;28;20076;-76
2021/01/10 12:47:09;;;;;;;10.20;5.40;;;4.20;95.80;;;;;;5002284;28;20073;-76
2021/01/10 12:49:35;;;;;;;9.95;5.28;;;4.10;96.10;;;;;;5003289;28;20480;-76
2021/01/10 12:52:01;;;;;;;10.52;5.38;;;4.10;96.50;;;;;;5003784;28;20030;-77